Time;durP1;ratioP1;P1;durP2;ratioP2;P2;SDS_P1;SDS_P2;PMS_P1;PMS_P2;Temp;Humidity;BMP_temperature;BMP_pressure;BME280_temperature;BME280_humidity;BME280_pressure;Samples;Min_cycle;Max_cycle;Signal;HPM_P1;HPM_P2
2023/04/11 00:02:13;;;;;;;1.25;1.15;;;;;;;;;;4953150;29;20042;-72
2023/04/11 00:04:39;;;;;;;1.85;0.70;;;;;;;;;;4950413;28;20448;-71
2023/04/11 00:07:06;;;;;;;1.83;0.70;;;;;;;;;;4949350;29;20102;-72
2023/04/11 00:09:32;;;;;;;1.25;0.90;;;;;;;;;;4948809;28;20062;-70
2023/04/11 00:12:00;;;;;;;0.80;0.70;;;;;;;;;;4949569;29;20103;-72
2023/04/11 00:14:27;;;;;;;0.60;0.60;;;;;;;;;;4952751;28;20353;-74
2023/04/11 00:16:56;;;;;;;4.00;1.27;;;;;;;;;;4949448;29;20098;-75
2023/04/11 00:19:24;;;;;;;1.50;1.00;;;;;;;;;;4953064;28;20034;-73
2023/04/11 00:21:51;;;;;;;1.88;1.33;;;;;;;;;;4949229;29;20082;-69
2023/04/11 00:24:17;;;;;;;3.00;1.00;;;;;;;;;;4949565;28;20023;-71
2023/04/11 00:26:43;;;;;;;1.65;1.00;;;;;;;;;;4932556;29;20385;-69
2023/04/11 00:29:09;;;;;;;2.95;0.88;;;;;;;;;;4950032;28;20028;-72
2023/04/11 00:31:35;;;;;;;0.80;0.80;;;;;;;;;;4950019;29;20047;-72
2023/04/11 00:34:01;;;;;;;0.80;0.80;;;;;;;;;;4948938;28;20046;-74
2023/04/11 00:36:27;;;;;;;2.72;1.30;;;;;;;;;;4932018;29;20038;-73
2023/04/11 00:38:53;;;;;;;2.00;1.20;;;;;;;;;;4948868;28;20027;-72
2023/04/11 00:41:20;;;;;;;4.05;0.80;;;;;;;;;;4949355;29;20032;-69
2023/04/11 00:43:46;;;;;;;3.65;1.30;;;;;;;;;;4948880;28;20416;-69
2023/04/11 00:46:13;;;;;;;0.68;0.68;;;;;;;;;;4948563;29;20499;-72
2023/04/11 00:48:40;;;;;;;0.75;0.70;;;;;;;;;;4948105;28;20102;-73
2023/04/11 00:51:06;;;;;;;2.33;0.85;;;;;;;;;;4948433;29;20505;-71
2023/04/11 00:53:32;;;;;;;2.50;1.35;;;;;;;;;;4948661;28;20046;-72
2023/04/11 00:56:02;;;;;;;1.23;0.80;;;;;;;;;;4949779;29;20028;-72
2023/04/11 00:58:28;;;;;;;1.70;1.08;;;;;;;;;;4950519;28;20030;-70
2023/04/11 01:00:54;;;;;;;1.63;0.80;;;;;;;;;;4950120;29;20030;-75
2023/04/11 01:03:21;;;;;;;1.73;1.00;;;;;;;;;;4933365;29;20023;-72
2023/04/11 01:05:48;;;;;;;1.35;1.02;;;;;;;;;;4951073;28;20035;-74
2023/04/11 01:08:15;;;;;;;0.75;0.75;;;;;;;;;;4950495;29;20411;-71
2023/04/11 01:10:41;;;;;;;1.83;0.70;;;;;;;;;;4950466;28;20456;-71
2023/04/11 01:13:08;;;;;;;3.75;0.98;;;;;;;;;;4951586;29;20581;-72
2023/04/11 01:15:34;;;;;;;2.83;1.70;;;;;;;;;;4934438;29;20122;-72
2023/04/11 01:18:00;;;;;;;2.35;0.95;;;;;;;;;;4951630;29;20106;-72
2023/04/11 01:20:27;;;;;;;1.52;1.13;;;;;;;;;;4951570;28;20019;-72
2023/04/11 01:22:53;;;;;;;1.48;0.70;;;;;;;;;;4950571;29;20027;-70
2023/04/11 01:25:21;;;;;;;2.08;1.30;;;;;;;;;;4951566;28;20236;-71
2023/04/11 01:27:47;;;;;;;1.05;1.00;;;;;;;;;;4934501;29;20183;-71
2023/04/11 01:30:13;;;;;;;1.00;1.00;;;;;;;;;;4947698;28;20089;-71
2023/04/11 01:32:39;;;;;;;5.53;1.33;;;;;;;;;;4970858;28;20027;-70
2023/04/11 01:35:06;;;;;;;1.20;1.00;;;;;;;;;;4953208;28;20035;-71
2023/04/11 01:37:33;;;;;;;2.45;0.93;;;;;;;;;;4970374;28;20035;-72
2023/04/11 01:39:59;;;;;;;2.75;1.33;;;;;;;;;;4970569;28;20121;-72
2023/04/11 01:42:25;;;;;;;1.38;1.25;;;;;;;;;;4970647;28;20030;-73
2023/04/11 01:44:52;;;;;;;2.72;1.00;;;;;;;;;;4953578;28;20064;-72
2023/04/11 01:47:18;;;;;;;6.25;1.13;;;;;;;;;;4970934;28;20027;-76
2023/04/11 01:49:44;;;;;;;1.30;1.20;;;;;;;;;;4970480;28;20519;-76
2023/04/11 01:52:10;;;;;;;2.75;1.30;;;;;;;;;;4953343;28;20502;-77
2023/04/11 01:54:36;;;;;;;1.50;1.40;;;;;;;;;;4970149;28;20117;-75
2023/04/11 01:57:02;;;;;;;2.03;1.42;;;;;;;;;;4953378;28;20049;-75
2023/04/11 01:59:29;;;;;;;1.23;0.93;;;;;;;;;;4970886;28;20031;-76
2023/04/11 02:01:55;;;;;;;1.00;0.90;;;;;;;;;;4970726;28;20031;-74
2023/04/11 02:04:21;;;;;;;3.25;1.10;;;;;;;;;;4970384;28;20039;-77
2023/04/11 02:06:47;;;;;;;0.80;0.80;;;;;;;;;;4953421;28;20027;-77
2023/04/11 02:09:13;;;;;;;3.08;1.20;;;;;;;;;;4970389;28;20030;-71
2023/04/11 02:11:39;;;;;;;1.38;1.30;;;;;;;;;;4970516;28;20134;-74
2023/04/11 02:14:05;;;;;;;0.90;0.90;;;;;;;;;;4970310;28;20037;-74
2023/04/11 02:16:32;;;;;;;2.42;1.20;;;;;;;;;;4970261;28;20122;-72
2023/04/11 02:18:58;;;;;;;0.80;0.80;;;;;;;;;;4952872;28;20034;-72
2023/04/11 02:21:24;;;;;;;1.35;1.25;;;;;;;;;;4971157;28;20031;-73
2023/04/11 02:23:50;;;;;;;1.23;1.20;;;;;;;;;;4973580;28;20027;-73
2023/04/11 02:26:16;;;;;;;0.80;0.80;;;;;;;;;;4974059;28;20045;-72
2023/04/11 02:28:42;;;;;;;3.13;1.13;;;;;;;;;;4956512;28;20356;-74
2023/04/11 02:31:08;;;;;;;2.67;1.55;;;;;;;;;;4973413;28;20031;-74
2023/04/11 02:33:34;;;;;;;1.95;1.35;;;;;;;;;;4977704;28;20038;-72
2023/04/11 02:36:00;;;;;;;4.03;1.52;;;;;;;;;;4974264;28;20026;-72
2023/04/11 02:38:26;;;;;;;3.35;0.60;;;;;;;;;;4974349;28;20031;-74
2023/04/11 02:40:52;;;;;;;0.93;0.77;;;;;;;;;;4973552;28;20023;-73
2023/04/11 02:43:18;;;;;;;2.55;0.85;;;;;;;;;;4974801;28;20034;-72
2023/04/11 02:45:44;;;;;;;0.45;0.45;;;;;;;;;;4955600;28;20054;-73
2023/04/11 02:48:10;;;;;;;1.05;0.95;;;;;;;;;;4974167;28;20084;-73
2023/04/11 02:50:39;;;;;;;0.40;0.40;;;;;;;;;;4974188;28;20061;-73
2023/04/11 02:53:06;;;;;;;0.80;0.77;;;;;;;;;;4974455;28;20101;-72
2023/04/11 02:55:32;;;;;;;0.60;0.60;;;;;;;;;;4971963;28;20420;-72
2023/04/11 02:57:58;;;;;;;0.60;0.60;;;;;;;;;;4973562;28;20066;-73
2023/04/11 03:00:25;;;;;;;0.65;0.60;;;;;;;;;;4974337;28;20027;-72
2023/04/11 03:02:51;;;;;;;0.60;0.55;;;;;;;;;;4974343;28;20543;-74
2023/04/11 03:05:16;;;;;;;1.13;0.50;;;;;;;;;;4957707;28;20119;-74
2023/04/11 03:07:43;;;;;;;1.45;0.60;;;;;;;;;;4975217;28;20106;-77
2023/04/11 03:10:09;;;;;;;0.70;0.63;;;;;;;;;;4974901;28;20049;-72
2023/04/11 03:12:35;;;;;;;2.35;0.40;;;;;;;;;;4958991;28;20030;-73
2023/04/11 03:15:01;;;;;;;1.42;0.70;;;;;;;;;;4975110;28;20054;-74
2023/04/11 03:17:27;;;;;;;0.52;0.50;;;;;;;;;;4973905;28;20031;-74
2023/04/11 03:19:53;;;;;;;0.70;0.70;;;;;;;;;;4974561;28;20475;-73
2023/04/11 03:22:20;;;;;;;4.97;1.02;;;;;;;;;;4973185;28;20142;-72
2023/04/11 03:24:48;;;;;;;0.65;0.47;;;;;;;;;;4973334;28;20097;-72
2023/04/11 03:27:14;;;;;;;1.55;1.00;;;;;;;;;;4974421;28;20050;-72
2023/04/11 03:29:40;;;;;;;1.95;0.68;;;;;;;;;;4970694;28;20026;-72
2023/04/11 03:32:06;;;;;;;2.83;0.88;;;;;;;;;;4937662;29;20041;-72
2023/04/11 03:34:32;;;;;;;0.95;0.75;;;;;;;;;;4937043;28;20440;-71
2023/04/11 03:36:58;;;;;;;0.80;0.63;;;;;;;;;;4953999;29;20114;-72
2023/04/11 03:39:24;;;;;;;1.27;0.50;;;;;;;;;;4955021;29;20059;-72
2023/04/11 03:41:50;;;;;;;0.50;0.50;;;;;;;;;;4957210;28;20342;-72
2023/04/11 03:44:16;;;;;;;4.45;1.63;;;;;;;;;;4974436;28;20038;-72
2023/04/11 03:46:42;;;;;;;1.63;0.77;;;;;;;;;;4973047;28;20038;-72
2023/04/11 03:49:08;;;;;;;1.52;1.02;;;;;;;;;;4973091;28;20090;-72
2023/04/11 03:51:34;;;;;;;3.58;0.80;;;;;;;;;;4972657;28;20502;-72
2023/04/11 03:54:00;;;;;;;2.33;0.80;;;;;;;;;;4973083;28;20023;-72
2023/04/11 03:56:26;;;;;;;1.98;1.02;;;;;;;;;;4973996;28;20037;-75
2023/04/11 03:58:52;;;;;;;2.13;0.52;;;;;;;;;;4975853;28;20459;-76
2023/04/11 04:01:19;;;;;;;1.00;0.82;;;;;;;;;;4975608;28;20033;-76
2023/04/11 04:03:44;;;;;;;1.80;1.00;;;;;;;;;;4974433;28;20039;-74
2023/04/11 04:06:10;;;;;;;0.45;0.45;;;;;;;;;;4973098;28;20380;-74
2023/04/11 04:08:37;;;;;;;0.70;0.70;;;;;;;;;;4973138;28;20023;-72
2023/04/11 04:11:03;;;;;;;0.57;0.57;;;;;;;;;;4971876;28;20185;-73
2023/04/11 04:13:29;;;;;;;0.50;0.50;;;;;;;;;;4970714;28;20034;-72
2023/04/11 04:15:56;;;;;;;1.65;0.80;;;;;;;;;;4974467;28;20027;-72
2023/04/11 04:18:22;;;;;;;0.52;0.50;;;;;;;;;;4975763;28;20027;-72
2023/04/11 04:20:48;;;;;;;0.50;0.50;;;;;;;;;;4971719;28;20115;-73
2023/04/11 04:23:16;;;;;;;1.48;0.40;;;;;;;;;;4971870;28;20022;-72
2023/04/11 04:25:44;;;;;;;3.22;0.50;;;;;;;;;;4972233;28;20520;-72
2023/04/11 04:28:10;;;;;;;1.40;0.60;;;;;;;;;;4972227;28;20113;-74
2023/04/11 04:30:37;;;;;;;0.28;0.28;;;;;;;;;;4972006;28;20030;-72
2023/04/11 04:33:03;;;;;;;1.95;0.70;;;;;;;;;;4970566;28;20122;-72
2023/04/11 04:35:29;;;;;;;2.47;0.47;;;;;;;;;;4971721;28;20030;-72
2023/04/11 04:37:55;;;;;;;0.65;0.55;;;;;;;;;;4970332;28;20026;-71
2023/04/11 04:40:21;;;;;;;1.38;0.65;;;;;;;;;;4972162;28;20018;-74
2023/04/11 04:42:57;;;;;;;0.57;0.50;;;;;;;;;;4970800;28;20460;-74
2023/04/11 04:45:24;;;;;;;3.25;0.55;;;;;;;;;;4972031;28;20113;-75
2023/04/11 04:47:50;;;;;;;3.15;0.50;;;;;;;;;;4972379;28;20027;-75
2023/04/11 04:50:16;;;;;;;1.35;0.60;;;;;;;;;;4971433;28;20027;-75
2023/04/11 04:52:42;;;;;;;6.22;1.05;;;;;;;;;;4972168;28;20110;-75
2023/04/11 04:55:08;;;;;;;0.95;0.45;;;;;;;;;;4971708;28;20042;-71
2023/04/11 04:57:34;;;;;;;1.55;0.85;;;;;;;;;;4971589;28;20038;-71
2023/04/11 05:00:00;;;;;;;0.50;0.50;;;;;;;;;;4970686;28;20037;-71
2023/04/11 05:02:26;;;;;;;2.90;1.20;;;;;;;;;;4971575;28;20387;-72
2023/04/11 05:04:55;;;;;;;1.00;0.50;;;;;;;;;;4972002;28;20037;-71
2023/04/11 05:07:22;;;;;;;1.45;1.00;;;;;;;;;;4971066;28;20080;-71
2023/04/11 05:09:48;;;;;;;3.08;0.70;;;;;;;;;;4970125;28;20499;-71
2023/04/11 05:12:15;;;;;;;2.80;0.60;;;;;;;;;;4971272;28;20065;-71
2023/04/11 05:14:41;;;;;;;1.13;1.02;;;;;;;;;;4969917;28;20495;-71
2023/04/11 05:17:07;;;;;;;1.30;0.50;;;;;;;;;;4969848;28;20085;-71
2023/04/11 05:19:33;;;;;;;1.95;0.75;;;;;;;;;;4971226;28;20023;-71
2023/04/11 05:21:59;;;;;;;3.40;0.77;;;;;;;;;;4970662;28;20031;-72
2023/04/11 05:24:25;;;;;;;1.23;0.82;;;;;;;;;;4972710;28;20133;-72
2023/04/11 05:26:51;;;;;;;6.15;1.02;;;;;;;;;;4971086;28;20027;-72
2023/04/11 05:29:17;;;;;;;0.75;0.63;;;;;;;;;;4969218;28;20027;-72
2023/04/11 05:31:43;;;;;;;1.65;0.57;;;;;;;;;;4937397;28;20035;-73
2023/04/11 05:34:09;;;;;;;3.20;0.63;;;;;;;;;;4965998;28;20037;-73
2023/04/11 05:36:35;;;;;;;2.15;1.00;;;;;;;;;;4958535;28;20102;-73
2023/04/11 05:39:03;;;;;;;1.20;0.70;;;;;;;;;;4949584;29;20031;-72
2023/04/11 05:41:29;;;;;;;5.63;1.05;;;;;;;;;;4951703;28;20148;-73
2023/04/11 05:43:55;;;;;;;0.40;0.40;;;;;;;;;;4952024;29;20035;-73
2023/04/11 05:46:21;;;;;;;1.00;0.38;;;;;;;;;;4952792;28;20031;-73
2023/04/11 05:48:47;;;;;;;3.92;0.90;;;;;;;;;;4952548;29;20031;-72
2023/04/11 05:51:13;;;;;;;0.70;0.45;;;;;;;;;;4962284;28;20473;-74
2023/04/11 05:53:39;;;;;;;1.73;1.10;;;;;;;;;;4973535;28;20065;-74
2023/04/11 05:56:06;;;;;;;2.08;0.47;;;;;;;;;;4969749;28;20404;-73
2023/04/11 05:58:33;;;;;;;1.05;0.40;;;;;;;;;;4972803;28;20039;-73
2023/04/11 06:00:59;;;;;;;0.40;0.40;;;;;;;;;;4973304;28;20501;-73
2023/04/11 06:03:25;;;;;;;2.83;1.17;;;;;;;;;;4972675;28;20057;-73
2023/04/11 06:05:52;;;;;;;0.95;0.80;;;;;;;;;;4971803;28;20035;-72
2023/04/11 06:08:18;;;;;;;1.63;0.98;;;;;;;;;;4973358;28;20019;-73
2023/04/11 06:10:44;;;;;;;5.47;0.80;;;;;;;;;;4969949;28;20057;-74
2023/04/11 06:13:10;;;;;;;1.70;0.60;;;;;;;;;;4970624;28;20039;-75
2023/04/11 06:15:37;;;;;;;3.45;0.82;;;;;;;;;;4971019;28;20038;-73
2023/04/11 06:18:03;;;;;;;1.90;0.98;;;;;;;;;;4971704;28;20031;-75
2023/04/11 06:20:29;;;;;;;2.92;0.77;;;;;;;;;;4973609;28;20507;-75
2023/04/11 06:22:56;;;;;;;2.72;0.40;;;;;;;;;;4952499;28;20046;-75
2023/04/11 06:25:23;;;;;;;0.57;0.55;;;;;;;;;;4952065;29;20047;-75
2023/04/11 06:27:50;;;;;;;2.03;0.65;;;;;;;;;;4965554;28;20027;-74
2023/04/11 06:30:16;;;;;;;0.65;0.60;;;;;;;;;;4955930;28;20029;-75
2023/04/11 06:32:42;;;;;;;1.55;0.57;;;;;;;;;;4938544;29;20477;-74
2023/04/11 06:35:08;;;;;;;1.27;0.90;;;;;;;;;;4952719;29;20134;-73
2023/04/11 06:37:34;;;;;;;1.20;0.50;;;;;;;;;;4970214;28;20031;-73
2023/04/11 06:40:00;;;;;;;1.77;0.50;;;;;;;;;;4955767;28;20475;-74
2023/04/11 06:42:26;;;;;;;0.90;0.60;;;;;;;;;;4954580;28;20486;-73
2023/04/11 06:44:52;;;;;;;2.30;1.23;;;;;;;;;;4952430;28;20030;-73
2023/04/11 06:47:19;;;;;;;3.97;0.85;;;;;;;;;;4953683;28;20023;-73
2023/04/11 06:49:45;;;;;;;0.60;0.60;;;;;;;;;;4973012;28;20034;-72
2023/04/11 06:52:11;;;;;;;1.65;0.50;;;;;;;;;;4970981;28;20042;-72
2023/04/11 06:54:37;;;;;;;0.60;0.60;;;;;;;;;;4971981;28;20046;-72
2023/04/11 06:57:03;;;;;;;2.25;0.88;;;;;;;;;;4972225;28;20039;-72
2023/04/11 06:59:29;;;;;;;0.93;0.57;;;;;;;;;;4957138;28;20058;-72
2023/04/11 07:01:55;;;;;;;3.15;0.85;;;;;;;;;;4972880;28;20065;-72
2023/04/11 07:04:21;;;;;;;4.22;0.90;;;;;;;;;;4956573;28;20585;-72
2023/04/11 07:06:47;;;;;;;0.93;0.40;;;;;;;;;;4973505;28;20026;-72
2023/04/11 07:09:13;;;;;;;2.58;0.60;;;;;;;;;;4970929;28;20018;-73
2023/04/11 07:11:39;;;;;;;1.45;1.08;;;;;;;;;;4971606;28;20138;-72
2023/04/11 07:14:05;;;;;;;9.55;1.40;;;;;;;;;;4953438;28;20031;-73
2023/04/11 07:16:32;;;;;;;3.03;0.40;;;;;;;;;;4970065;28;20022;-72
2023/04/11 07:18:58;;;;;;;1.65;1.15;;;;;;;;;;4970396;28;20177;-73
2023/04/11 07:21:26;;;;;;;1.45;0.60;;;;;;;;;;4970477;28;20030;-72
2023/04/11 07:23:53;;;;;;;12.93;1.38;;;;;;;;;;4972079;28;20755;-72
2023/04/11 07:26:19;;;;;;;4.22;1.83;;;;;;;;;;4971730;28;20085;-71
2023/04/11 07:28:46;;;;;;;2.83;1.05;;;;;;;;;;4953299;28;20059;-72
2023/04/11 07:31:12;;;;;;;1.85;0.68;;;;;;;;;;4936716;28;20331;-72
2023/04/11 07:33:39;;;;;;;9.02;1.50;;;;;;;;;;4953001;29;20043;-72
2023/04/11 07:36:06;;;;;;;4.05;0.95;;;;;;;;;;4935492;28;20391;-72
2023/04/11 07:38:33;;;;;;;2.03;0.85;;;;;;;;;;4953593;29;20035;-73
2023/04/11 07:41:00;;;;;;;5.30;1.13;;;;;;;;;;4932730;29;20111;-74
2023/04/11 07:43:26;;;;;;;0.65;0.57;;;;;;;;;;4967541;28;20030;-74
2023/04/11 07:45:53;;;;;;;5.07;0.60;;;;;;;;;;4969824;28;20459;-73
2023/04/11 07:48:23;;;;;;;0.50;0.50;;;;;;;;;;4969178;28;20030;-72
2023/04/11 07:50:49;;;;;;;0.40;0.28;;;;;;;;;;4971922;28;20030;-74
2023/04/11 07:53:15;;;;;;;2.45;1.23;;;;;;;;;;4969048;28;20115;-74
2023/04/11 07:55:41;;;;;;;4.03;0.82;;;;;;;;;;4970394;28;20628;-71
2023/04/11 07:58:07;;;;;;;5.97;1.30;;;;;;;;;;4969472;28;20023;-74
2023/04/11 08:00:34;;;;;;;2.58;0.70;;;;;;;;;;4969354;28;20068;-72
2023/04/11 08:03:09;;;;;;;1.50;0.77;;;;;;;;;;4968852;28;20045;-72
2023/04/11 08:05:36;;;;;;;3.25;0.43;;;;;;;;;;4969588;28;20030;-75
2023/04/11 08:08:05;;;;;;;0.57;0.55;;;;;;;;;;4969165;28;20031;-72
2023/04/11 08:10:31;;;;;;;1.27;0.60;;;;;;;;;;4969336;28;20078;-74
2023/04/11 08:12:57;;;;;;;0.95;0.57;;;;;;;;;;4951126;28;20109;-72
2023/04/11 08:15:23;;;;;;;4.18;0.60;;;;;;;;;;4969385;28;20037;-72
2023/04/11 08:17:50;;;;;;;3.35;0.70;;;;;;;;;;4968215;28;20038;-71
2023/04/11 08:20:16;;;;;;;6.00;0.82;;;;;;;;;;4968743;28;20034;-70
2023/04/11 08:22:45;;;;;;;4.03;0.82;;;;;;;;;;4951263;28;20403;-75
2023/04/11 08:25:12;;;;;;;2.95;0.70;;;;;;;;;;4968470;28;20098;-71
2023/04/11 08:27:38;;;;;;;4.18;0.88;;;;;;;;;;4958951;28;20114;-71
2023/04/11 08:30:07;;;;;;;3.33;1.02;;;;;;;;;;4933029;29;20023;-71
2023/04/11 08:32:33;;;;;;;1.67;1.10;;;;;;;;;;4948759;28;20035;-70
2023/04/11 08:34:59;;;;;;;1.55;1.00;;;;;;;;;;4949151;29;20496;-71
2023/04/11 08:37:26;;;;;;;1.98;0.50;;;;;;;;;;4949390;28;20106;-73
2023/04/11 08:39:52;;;;;;;1.55;0.55;;;;;;;;;;4948936;29;20098;-73
2023/04/11 08:42:28;;;;;;;5.05;0.50;;;;;;;;;;4953865;28;20491;-73
2023/04/11 08:44:58;;;;;;;1.25;1.08;;;;;;;;;;4969161;28;20102;-73
2023/04/11 08:47:25;;;;;;;1.02;0.57;;;;;;;;;;4968937;28;20031;-73
2023/04/11 08:49:51;;;;;;;1.02;0.52;;;;;;;;;;4969293;28;20463;-75
2023/04/11 08:52:21;;;;;;;3.80;1.15;;;;;;;;;;4950005;28;20050;-74
2023/04/11 08:54:47;;;;;;;2.97;0.50;;;;;;;;;;4967992;28;20027;-73
2023/04/11 08:57:37;;;;;;;3.03;1.38;;;;;;;;;;4968272;28;21876;-77
2023/04/11 09:00:12;;;;;;;2.42;0.82;;;;;;;;;;4950631;28;20030;-73
2023/04/11 09:02:55;;;;;;;1.60;0.93;;;;;;;;;;4966428;28;20038;-75
2023/04/11 09:05:27;;;;;;;1.75;1.15;;;;;;;;;;4966673;28;20031;-72
2023/04/11 09:07:53;;;;;;;4.63;0.80;;;;;;;;;;4967468;28;20327;-72
2023/04/11 09:10:20;;;;;;;0.50;0.28;;;;;;;;;;4966470;28;20154;-74
2023/04/11 09:12:46;;;;;;;5.30;1.17;;;;;;;;;;4967562;28;20074;-76
2023/04/11 09:15:18;;;;;;;4.20;0.88;;;;;;;;;;4966359;28;20318;-72
2023/04/11 09:17:44;;;;;;;5.20;1.42;;;;;;;;;;4968008;28;20035;-76
2023/04/11 09:20:18;;;;;;;2.28;0.60;;;;;;;;;;4967439;28;20026;-77
2023/04/11 09:22:44;;;;;;;3.97;0.70;;;;;;;;;;4966052;28;20037;-72
2023/04/11 09:25:10;;;;;;;4.22;0.90;;;;;;;;;;4968472;28;20263;-76
2023/04/11 09:27:36;;;;;;;1.98;0.55;;;;;;;;;;4966624;28;20042;-76
2023/04/11 09:30:04;;;;;;;1.38;0.65;;;;;;;;;;4968063;28;20031;-76
2023/04/11 09:32:33;;;;;;;12.20;1.27;;;;;;;;;;4971676;28;20043;-76
2023/04/11 09:35:09;;;;;;;2.47;0.82;;;;;;;;;;4972504;28;20046;-73
2023/04/11 09:37:45;;;;;;;2.40;0.55;;;;;;;;;;4972421;28;20050;-73
2023/04/11 09:40:11;;;;;;;1.00;0.70;;;;;;;;;;4972343;28;20026;-74
2023/04/11 09:42:38;;;;;;;3.85;0.70;;;;;;;;;;4972434;28;20037;-74
2023/04/11 09:45:04;;;;;;;2.60;0.70;;;;;;;;;;4971638;28;20399;-72
2023/04/11 09:47:33;;;;;;;4.28;1.38;;;;;;;;;;4971202;28;20059;-76
2023/04/11 09:49:59;;;;;;;6.78;0.73;;;;;;;;;;4971368;28;20034;-74
2023/04/11 09:52:31;;;;;;;2.75;1.35;;;;;;;;;;4953562;28;20046;-72
2023/04/11 09:54:57;;;;;;;3.35;0.75;;;;;;;;;;4971306;28;20030;-76
2023/04/11 09:57:24;;;;;;;3.70;0.70;;;;;;;;;;4953801;28;20492;-74
2023/04/11 09:59:52;;;;;;;1.85;0.82;;;;;;;;;;4971280;28;20018;-74
2023/04/11 10:02:18;;;;;;;1.38;0.70;;;;;;;;;;4973263;28;20059;-77
2023/04/11 10:04:44;;;;;;;2.95;0.55;;;;;;;;;;4953907;28;20366;-73
2023/04/11 10:07:15;;;;;;;3.90;1.05;;;;;;;;;;4971084;28;20033;-72
2023/04/11 10:09:42;;;;;;;4.65;1.00;;;;;;;;;;4971043;28;20101;-71
2023/04/11 10:12:08;;;;;;;2.38;0.80;;;;;;;;;;4971112;28;20038;-71
2023/04/11 10:14:37;;;;;;;0.90;0.90;;;;;;;;;;4971751;28;20082;-70
2023/04/11 10:17:14;;;;;;;2.10;1.13;;;;;;;;;;4971793;28;20102;-71
2023/04/11 10:19:40;;;;;;;1.95;0.63;;;;;;;;;;4952981;28;20459;-70
2023/04/11 10:22:06;;;;;;;2.10;1.17;;;;;;;;;;4953439;28;20037;-71
2023/04/11 10:24:32;;;;;;;2.10;0.75;;;;;;;;;;4953310;28;20194;-71
2023/04/11 10:26:59;;;;;;;5.97;0.95;;;;;;;;;;4966179;28;20527;-70
2023/04/11 10:29:29;;;;;;;2.28;0.57;;;;;;;;;;4952053;28;20279;-70
2023/04/11 10:32:08;;;;;;;2.47;0.50;;;;;;;;;;4951937;29;20487;-70
2023/04/11 10:34:37;;;;;;;3.42;0.95;;;;;;;;;;4951544;28;20043;-71
2023/04/11 10:37:04;;;;;;;4.47;1.25;;;;;;;;;;4951701;29;20066;-69
2023/04/11 10:39:52;;;;;;;0.50;0.50;;;;;;;;;;4951116;28;20035;-70
2023/04/11 10:42:27;;;;;;;0.90;0.70;;;;;;;;;;4951743;28;20171;-69
2023/04/11 10:45:12;;;;;;;5.05;0.98;;;;;;;;;;4950934;29;20031;-69
2023/04/11 10:47:38;;;;;;;4.57;1.23;;;;;;;;;;4951331;28;20514;-68
2023/04/11 10:50:27;;;;;;;4.03;1.42;;;;;;;;;;4951293;29;20050;-70
2023/04/11 10:53:03;;;;;;;1.30;0.90;;;;;;;;;;4955398;28;20367;-69
2023/04/11 10:55:31;;;;;;;7.65;1.75;;;;;;;;;;4969854;28;20031;-69
2023/04/11 10:58:15;;;;;;;2.55;0.80;;;;;;;;;;4970330;28;20551;-70
2023/04/11 11:00:48;;;;;;;4.22;1.48;;;;;;;;;;4970875;28;20054;-70
2023/04/11 11:03:28;;;;;;;4.40;1.20;;;;;;;;;;4969781;28;20034;-71
2023/04/11 11:05:59;;;;;;;1.20;0.60;;;;;;;;;;4970949;28;20031;-69
2023/04/11 11:08:33;;;;;;;3.70;0.57;;;;;;;;;;4971435;28;20030;-71
2023/04/11 11:11:03;;;;;;;3.92;0.93;;;;;;;;;;4971281;28;20679;-77
2023/04/11 11:13:42;;;;;;;4.60;1.30;;;;;;;;;;4961950;28;20054;-76
2023/04/11 11:16:09;;;;;;;2.08;1.20;;;;;;;;;;4950314;29;20509;-75
2023/04/11 11:18:36;;;;;;;1.65;0.90;;;;;;;;;;4951188;28;20053;-74
2023/04/11 11:21:02;;;;;;;4.22;0.82;;;;;;;;;;4933822;29;20027;-74
2023/04/11 11:23:28;;;;;;;6.55;0.95;;;;;;;;;;4951295;28;20319;-74
2023/04/11 11:25:55;;;;;;;2.45;1.25;;;;;;;;;;4951574;29;20280;-72
2023/04/11 11:28:21;;;;;;;0.68;0.60;;;;;;;;;;4959659;28;20019;-75
2023/04/11 11:30:54;;;;;;;2.33;0.98;;;;;;;;;;4933061;29;20491;-76
2023/04/11 11:33:21;;;;;;;1.42;1.00;;;;;;;;;;4951204;28;20122;-76
2023/04/11 11:35:51;;;;;;;2.28;0.93;;;;;;;;;;4934417;29;20051;-74
2023/04/11 11:38:18;;;;;;;0.77;0.50;;;;;;;;;;4933892;29;20031;-76
2023/04/11 11:40:45;;;;;;;2.28;1.27;;;;;;;;;;4950406;29;20038;-77
2023/04/11 11:43:11;;;;;;;1.50;0.40;;;;;;;;;;4950323;28;20514;-75
2023/04/11 11:45:38;;;;;;;5.95;0.65;;;;;;;;;;4933489;29;20118;-72
2023/04/11 11:48:04;;;;;;;2.60;0.90;;;;;;;;;;4950639;28;20031;-77
2023/04/11 11:50:31;;;;;;;2.75;0.88;;;;;;;;;;4951918;29;20506;-74
2023/04/11 11:53:16;;;;;;;5.00;1.08;;;;;;;;;;4933107;28;20102;-75
2023/04/11 11:55:42;;;;;;;3.40;0.90;;;;;;;;;;4949354;28;20106;-74
2023/04/11 11:58:09;;;;;;;1.60;0.77;;;;;;;;;;4949851;28;20187;-73
2023/04/11 12:00:36;;;;;;;3.38;0.50;;;;;;;;;;4949893;29;20066;-72
2023/04/11 12:03:03;;;;;;;4.15;1.52;;;;;;;;;;4950567;28;20110;-73
2023/04/11 12:05:31;;;;;;;4.60;1.08;;;;;;;;;;4950016;29;20031;-73
2023/04/11 12:07:58;;;;;;;2.28;0.98;;;;;;;;;;4949718;28;20038;-73
2023/04/11 12:10:24;;;;;;;1.75;0.50;;;;;;;;;;4949724;29;20082;-73
2023/04/11 12:12:50;;;;;;;3.38;0.93;;;;;;;;;;4949583;29;20054;-72
2023/04/11 12:15:17;;;;;;;6.50;1.15;;;;;;;;;;4950266;28;20027;-77
2023/04/11 12:17:48;;;;;;;3.58;1.23;;;;;;;;;;4950140;29;20031;-76
2023/04/11 12:20:14;;;;;;;5.25;1.40;;;;;;;;;;4949688;28;20126;-76
2023/04/11 12:22:41;;;;;;;6.00;1.77;;;;;;;;;;4949806;29;20019;-76
2023/04/11 12:25:07;;;;;;;2.78;0.80;;;;;;;;;;4949539;28;20023;-77
2023/04/11 12:27:35;;;;;;;1.83;1.10;;;;;;;;;;4959006;28;20396;-78
2023/04/11 12:30:01;;;;;;;2.95;0.63;;;;;;;;;;4944396;28;20037;-75
2023/04/11 12:32:28;;;;;;;3.83;0.60;;;;;;;;;;4968905;28;20089;-76
2023/04/11 12:34:54;;;;;;;3.00;1.65;;;;;;;;;;4968789;28;20491;-76
2023/04/11 12:37:21;;;;;;;6.00;1.20;;;;;;;;;;4968989;28;20205;-76
2023/04/11 12:39:47;;;;;;;1.25;0.82;;;;;;;;;;4950807;28;20380;-73
2023/04/11 12:42:13;;;;;;;3.17;0.70;;;;;;;;;;4967723;28;20391;-76
2023/04/11 12:44:39;;;;;;;2.58;0.93;;;;;;;;;;4967980;28;20039;-73
2023/04/11 12:47:05;;;;;;;2.88;0.60;;;;;;;;;;4951055;28;20110;-72
2023/04/11 12:49:31;;;;;;;2.30;0.88;;;;;;;;;;4967406;28;20030;-75
2023/04/11 12:51:57;;;;;;;3.55;0.90;;;;;;;;;;4967311;28;20491;-71
2023/04/11 12:54:23;;;;;;;4.05;0.80;;;;;;;;;;4949901;28;20031;-73
2023/04/11 12:56:49;;;;;;;4.32;1.95;;;;;;;;;;4950593;28;20019;-75
2023/04/11 12:59:16;;;;;;;3.92;1.17;;;;;;;;;;4959514;28;20035;-72
2023/04/11 13:01:42;;;;;;;2.20;0.88;;;;;;;;;;4948400;29;20114;-71
2023/04/11 13:04:09;;;;;;;0.80;0.73;;;;;;;;;;4949177;28;20357;-70
2023/04/11 13:06:36;;;;;;;1.98;0.93;;;;;;;;;;4948865;28;20027;-73
2023/04/11 13:09:04;;;;;;;12.35;0.93;;;;;;;;;;4949253;28;20029;-71
2023/04/11 13:11:30;;;;;;;2.63;0.90;;;;;;;;;;4948485;29;20067;-71
2023/04/11 13:13:56;;;;;;;3.00;0.68;;;;;;;;;;4948326;28;20119;-72
2023/04/11 13:16:25;;;;;;;5.20;1.15;;;;;;;;;;4948264;29;20092;-77
2023/04/11 13:18:52;;;;;;;2.95;1.50;;;;;;;;;;4948662;28;20214;-72
2023/04/11 13:21:18;;;;;;;3.20;0.80;;;;;;;;;;4948653;29;20019;-71
2023/04/11 13:23:44;;;;;;;4.03;0.98;;;;;;;;;;4947796;28;20034;-71
2023/04/11 13:26:10;;;;;;;2.10;0.93;;;;;;;;;;4948462;29;20023;-73
2023/04/11 13:28:39;;;;;;;1.92;1.40;;;;;;;;;;4964549;28;20038;-72
2023/04/11 13:31:09;;;;;;;6.40;1.20;;;;;;;;;;4967511;28;20121;-71
2023/04/11 13:33:35;;;;;;;1.33;0.90;;;;;;;;;;4966166;28;20051;-70
2023/04/11 13:36:01;;;;;;;4.57;1.02;;;;;;;;;;4966646;28;20499;-71
2023/04/11 13:38:28;;;;;;;4.22;1.23;;;;;;;;;;4967173;28;20079;-72
2023/04/11 13:40:54;;;;;;;1.75;0.90;;;;;;;;;;4966571;28;20391;-72
2023/04/11 13:43:21;;;;;;;0.90;0.52;;;;;;;;;;4967382;28;20514;-73
2023/04/11 13:45:47;;;;;;;1.58;0.60;;;;;;;;;;4967815;28;20041;-71
2023/04/11 13:48:13;;;;;;;3.05;1.65;;;;;;;;;;4967764;28;20031;-71
2023/04/11 13:50:39;;;;;;;3.78;1.00;;;;;;;;;;4967561;28;20368;-72
2023/04/11 13:53:05;;;;;;;3.60;1.17;;;;;;;;;;4967097;28;20035;-73
2023/04/11 13:55:31;;;;;;;2.50;1.05;;;;;;;;;;4966191;28;20115;-71
2023/04/11 14:01:01;;;;;;;3.08;0.77;;;;;;;;;;4967410;28;20042;-72
2023/04/11 14:03:31;;;;;;;2.08;1.15;;;;;;;;;;4967158;28;20023;-73
2023/04/11 14:06:02;;;;;;;2.25;0.82;;;;;;;;;;4967241;28;20368;-72
2023/04/11 14:08:28;;;;;;;2.78;0.47;;;;;;;;;;4967775;28;20037;-75
2023/04/11 14:10:54;;;;;;;3.28;1.25;;;;;;;;;;4967767;28;20047;-72
2023/04/11 14:13:23;;;;;;;4.65;0.70;;;;;;;;;;4967715;28;20331;-73
2023/04/11 14:15:49;;;;;;;5.53;1.20;;;;;;;;;;4966404;28;20411;-72
2023/04/11 14:18:16;;;;;;;3.13;1.70;;;;;;;;;;4966365;28;20109;-74
2023/04/11 14:20:42;;;;;;;3.97;1.58;;;;;;;;;;4968851;28;20098;-73
2023/04/11 14:23:09;;;;;;;4.60;0.80;;;;;;;;;;4969297;28;20110;-77
2023/04/11 14:25:35;;;;;;;2.15;1.50;;;;;;;;;;4969052;28;20045;-74
2023/04/11 14:28:01;;;;;;;3.13;1.75;;;;;;;;;;4955353;28;20107;-75
2023/04/11 14:30:28;;;;;;;2.58;0.82;;;;;;;;;;4963507;28;20037;-72
2023/04/11 14:32:54;;;;;;;2.10;0.57;;;;;;;;;;4972192;28;20106;-74
2023/04/11 14:35:20;;;;;;;5.32;1.70;;;;;;;;;;4970583;28;20046;-75
2023/04/11 14:37:47;;;;;;;4.05;0.60;;;;;;;;;;4969863;28;20031;-76
2023/04/11 14:40:13;;;;;;;3.17;0.85;;;;;;;;;;4953245;28;20041;-81
2023/04/11 14:42:39;;;;;;;3.80;0.70;;;;;;;;;;4971307;28;20030;-73
2023/04/11 14:45:06;;;;;;;2.38;0.90;;;;;;;;;;4934996;29;20023;-71
2023/04/11 14:47:32;;;;;;;4.68;0.60;;;;;;;;;;4953144;28;20059;-75